Boden, Illinois
Current Conditions -  °F | °C
As of 1:52 PM on Wednesday 17 Dec 2014 (Local Time) from KMLI Reporting Station
Clear Clear  
Wind Chill: 19°   Ceiling: Unl
Heat Index: 28°   Visibility: 10mi
Dew Point: 16°   Wind: 10mph
Humidity: 61%   Direction: 300°WNW
Pressure: 30.25"   Gusts: NA
Location:  41.2864°N, 90.4945°W
Report Text: KMLI 171952Z 30009KT 10SM CLR M02/M09 A3025 RMK AO2 SLP253 T10221089 $
Loading
Personal Weather Stations






























Interactive Weather Map New forecast layout! Learn more

10-Day Weather Forecast

Advertisements
Track Severe Weather on mobile